Time;durP1;ratioP1;P1;durP2;ratioP2;P2;SDS_P1;SDS_P2;PMS_P1;PMS_P2;Temp;Humidity;BMP_temperature;BMP_pressure;BME280_temperature;BME280_humidity;BME280_pressure;Samples;Min_cycle;Max_cycle;Signal;HPM_P1;HPM_P2
2023/01/04 00:01:15;;;;;;;;;;;14.90;65.10;;;;;;10170110;28;93471;-59
2023/01/04 00:06:16;;;;;;;;;;;14.90;65.10;;;;;;10184916;28;93188;-60
2023/01/04 00:11:19;;;;;;;;;;;14.80;65.00;;;;;;10170009;28;94112;-60
2023/01/04 00:16:22;;;;;;;;;;;14.80;65.10;;;;;;10169359;28;93896;-60
2023/01/04 00:21:26;;;;;;;;;;;14.80;65.20;;;;;;10167180;28;96807;-59
2023/01/04 00:26:29;;;;;;;;;;;14.80;65.20;;;;;;10169248;28;94636;-60
2023/01/04 00:31:31;;;;;;;;;;;14.80;65.30;;;;;;10170248;28;93545;-59
2023/01/04 00:36:33;;;;;;;;;;;14.80;65.40;;;;;;10169170;28;94622;-60
2023/01/04 00:41:48;;;;;;;;;;;14.80;65.40;;;;;;10168635;28;94799;-60
2023/01/04 00:47:01;;;;;;;;;;;14.80;65.40;;;;;;10169728;28;92547;-59
2023/01/04 00:52:03;;;;;;;;;;;14.80;65.40;;;;;;10182371;28;94653;-60
2023/01/04 00:57:06;;;;;;;;;;;14.80;65.50;;;;;;10170004;28;92992;-59
2023/01/04 01:02:08;;;;;;;;;;;14.90;65.50;;;;;;10168713;28;94668;-59
2023/01/04 01:07:09;;;;;;;;;;;14.90;65.40;;;;;;10168083;28;93385;-59
2023/01/04 01:12:11;;;;;;;;;;;14.90;65.40;;;;;;10166890;28;96874;-60
2023/01/04 01:17:13;;;;;;;;;;;14.90;65.40;;;;;;10167746;28;94638;-60
2023/01/04 01:22:15;;;;;;;;;;;14.90;65.40;;;;;;10167690;28;94685;-61
2023/01/04 01:27:17;;;;;;;;;;;14.90;65.50;;;;;;10166852;28;93442;-60
2023/01/04 01:32:18;;;;;;;;;;;14.90;65.50;;;;;;10167321;28;95009;-60
2023/01/04 01:37:20;;;;;;;;;;;14.90;66.60;;;;;;10166192;28;94317;-61
2023/01/04 01:42:22;;;;;;;;;;;14.90;65.60;;;;;;10167043;28;93292;-60
2023/01/04 01:47:26;;;;;;;;;;;14.90;65.70;;;;;;10167247;28;92518;-61
2023/01/04 01:52:30;;;;;;;;;;;14.80;65.70;;;;;;10181140;28;95036;-61
2023/01/04 01:57:34;;;;;;;;;;;14.80;65.80;;;;;;10166985;28;93642;-61
2023/01/04 02:02:37;;;;;;;;;;;14.80;65.90;;;;;;10592718;23;96968;-62
2023/01/04 02:07:39;;;;;;;;;;;14.80;65.90;;;;;;10162632;28;93527;-65
2023/01/04 02:12:41;;;;;;;;;;;14.80;66.00;;;;;;10165586;28;94498;-65
2023/01/04 02:17:56;;;;;;;;;;;14.80;66.20;;;;;;10164051;28;94055;-64
2023/01/04 02:23:00;;;;;;;;;;;14.80;66.20;;;;;;10166547;28;93495;-64
2023/01/04 02:28:08;;;;;;;;;;;14.80;66.30;;;;;;10165998;28;94357;-64
2023/01/04 02:33:15;;;;;;;;;;;14.80;66.30;;;;;;10165629;28;93480;-65
2023/01/04 02:38:17;;;;;;;;;;;14.70;66.20;;;;;;10166163;28;93961;-65
2023/01/04 02:54:02;;;;;;;;;;;14.80;66.30;;;;;;10163080;28;96924;-65
2023/01/04 02:59:17;;;;;;;;;;;14.80;66.30;;;;;;10165248;28;93509;-65
2023/01/04 03:10:06;;;;;;;;;;;14.70;66.30;;;;;;10165209;28;93360;-64
2023/01/04 03:15:08;;;;;;;;;;;14.80;66.40;;;;;;10166503;28;94413;-65
2023/01/04 03:20:11;;;;;;;;;;;14.80;66.50;;;;;;10171740;28;94574;-65
2023/01/04 03:36:10;;;;;;;;;;;14.80;66.80;;;;;;10171278;28;94013;-64
2023/01/04 03:52:03;;;;;;;;;;;14.80;66.60;;;;;;10170334;28;93448;-65
2023/01/04 03:57:06;;;;;;;;;;;14.80;66.70;;;;;;10171068;28;93633;-65
2023/01/04 04:02:12;;;;;;;;;;;14.80;66.70;;;;;;10170076;28;94578;-65
2023/01/04 04:12:34;;;;;;;;;;;14.90;66.80;;;;;;10169609;28;93662;-64
2023/01/04 04:17:36;;;;;;;;;;;14.80;66.90;;;;;;10170753;28;92622;-64
2023/01/04 04:22:38;;;;;;;;;;;14.80;66.90;;;;;;10170509;28;93605;-65
2023/01/04 04:27:40;;;;;;;;;;;14.80;67.00;;;;;;10168967;28;93533;-65
2023/01/04 04:32:41;;;;;;;;;;;14.80;67.10;;;;;;10170530;28;93515;-65
2023/01/04 04:37:43;;;;;;;;;;;14.80;67.20;;;;;;10167162;28;96845;-65
2023/01/04 04:42:45;;;;;;;;;;;14.80;67.20;;;;;;10168200;28;94131;-64
2023/01/04 06:05:17;;;;;;;;;;;14.70;67.90;;;;;;10142144;28;92994;-65
2023/01/04 06:10:19;;;;;;;;;;;14.70;67.90;;;;;;10166859;28;93551;-65
2023/01/04 06:15:21;;;;;;;;;;;14.70;68.00;;;;;;10164947;28;92662;-65
2023/01/04 06:20:23;;;;;;;;;;;14.70;68.00;;;;;;10167396;28;92803;-65
2023/01/04 06:25:24;;;;;;;;;;;14.70;68.10;;;;;;10164807;28;93794;-65
2023/01/04 06:30:27;;;;;;;;;;;14.70;68.30;;;;;;10164066;28;92597;-65
2023/01/04 06:35:29;;;;;;;;;;;14.70;68.30;;;;;;10163844;28;95833;-65
2023/01/04 06:40:31;;;;;;;;;;;14.80;68.30;;;;;;10165246;28;93375;-65
2023/01/04 06:45:32;;;;;;;;;;;14.80;68.20;;;;;;10165296;28;93272;-64
2023/01/04 06:50:34;;;;;;;;;;;14.80;68.20;;;;;;10180884;28;93880;-64
2023/01/04 06:55:36;;;;;;;;;;;14.80;69.30;;;;;;10186480;28;93663;-65
2023/01/04 07:00:38;;;;;;;;;;;14.80;68.30;;;;;;10172466;28;93090;-65
2023/01/04 07:05:40;;;;;;;;;;;14.80;68.40;;;;;;10172274;28;93564;-65
2023/01/04 07:10:42;;;;;;;;;;;14.80;68.40;;;;;;10187672;28;94012;-64
2023/01/04 07:15:43;;;;;;;;;;;14.80;68.50;;;;;;10170949;28;93655;-65
2023/01/04 07:20:45;;;;;;;;;;;14.80;68.50;;;;;;10172573;28;94620;-65
2023/01/04 07:25:47;;;;;;;;;;;14.80;68.60;;;;;;10168265;28;96890;-65
2023/01/04 07:30:49;;;;;;;;;;;14.80;68.70;;;;;;10171761;28;94235;-65
2023/01/04 07:35:51;;;;;;;;;;;14.80;68.80;;;;;;10172071;28;93464;-65
2023/01/04 07:40:53;;;;;;;;;;;14.80;68.80;;;;;;10170816;28;93634;-64
2023/01/04 07:45:57;;;;;;;;;;;14.80;68.90;;;;;;10171699;28;93455;-65
2023/01/04 07:50:59;;;;;;;;;;;14.70;68.90;;;;;;10170956;28;93504;-65
2023/01/04 07:56:01;;;;;;;;;;;14.70;69.00;;;;;;10170637;28;93961;-65
2023/01/04 08:01:10;;;;;;;;;;;14.80;69.10;;;;;;10170702;28;92732;-65
2023/01/04 08:06:13;;;;;;;;;;;14.70;69.10;;;;;;10167971;28;93616;-65
2023/01/04 08:11:16;;;;;;;;;;;14.70;69.10;;;;;;10168544;28;92844;-65
2023/01/04 08:16:19;;;;;;;;;;;14.70;69.10;;;;;;10167322;28;96759;-65
2023/01/04 08:21:21;;;;;;;;;;;14.70;69.30;;;;;;10169440;28;94061;-65
2023/01/04 08:26:23;;;;;;;;;;;14.70;69.20;;;;;;10169133;28;93579;-65
2023/01/04 08:31:29;;;;;;;;;;;14.70;69.30;;;;;;10169499;28;93260;-65
2023/01/04 08:36:32;;;;;;;;;;;14.70;69.30;;;;;;10169342;28;93437;-64
2023/01/04 08:41:49;;;;;;;;;;;14.70;69.30;;;;;;10169254;28;93515;-65
2023/01/04 08:47:11;;;;;;;;;;;14.70;69.30;;;;;;10168880;28;96030;-65
2023/01/04 08:52:14;;;;;;;;;;;14.70;69.50;;;;;;10169351;28;93628;-65
2023/01/04 08:57:17;;;;;;;;;;;14.70;69.40;;;;;;10168375;28;93533;-65
2023/01/04 09:02:20;;;;;;;;;;;14.70;69.50;;;;;;10167567;28;93757;-64
2023/01/04 09:07:22;;;;;;;;;;;14.70;69.50;;;;;;10180201;28;97038;-65
2023/01/04 09:12:24;;;;;;;;;;;14.70;69.60;;;;;;10183534;28;93449;-65
2023/01/04 09:17:26;;;;;;;;;;;14.70;69.70;;;;;;10167885;28;93574;-65
2023/01/04 09:22:29;;;;;;;;;;;14.70;69.60;;;;;;10167688;28;94600;-65
2023/01/04 09:27:31;;;;;;;;;;;14.70;69.70;;;;;;10168531;28;93248;-65
2023/01/04 09:32:33;;;;;;;;;;;14.60;69.70;;;;;;10167243;28;93584;-65
2023/01/04 09:37:35;;;;;;;;;;;14.70;69.90;;;;;;10166466;28;93628;-65
2023/01/04 09:42:39;;;;;;;;;;;14.60;69.70;;;;;;10166761;28;92738;-64
2023/01/04 09:47:43;;;;;;;;;;;14.70;69.90;;;;;;10167011;28;93576;-65
2023/01/04 09:52:50;;;;;;;;;;;14.70;70.00;;;;;;10167554;28;93832;-65
2023/01/04 09:57:55;;;;;;;;;;;14.80;70.00;;;;;;10163851;28;96523;-65
2023/01/04 10:03:09;;;;;;;;;;;14.70;69.70;;;;;;10166356;28;94106;-65
2023/01/04 10:08:14;;;;;;;;;;;14.80;69.80;;;;;;10165586;28;94313;-64
2023/01/04 10:13:19;;;;;;;;;;;14.80;69.80;;;;;;10166111;28;93547;-65
2023/01/04 10:18:36;;;;;;;;;;;14.80;69.80;;;;;;10180393;28;114026;-64
2023/01/04 10:24:03;;;;;;;;;;;14.80;69.90;;;;;;10165951;28;93836;-65
2023/01/04 10:29:17;;;;;;;;;;;14.80;70.00;;;;;;10172248;28;93451;-65
2023/01/04 10:34:26;;;;;;;;;;;14.80;70.00;;;;;;10173605;28;93725;-64
2023/01/04 10:39:30;;;;;;;;;;;14.80;70.10;;;;;;10173240;28;93506;-65
2023/01/04 10:44:42;;;;;;;;;;;14.80;70.40;;;;;;10173193;28;93527;-64
2023/01/04 10:49:51;;;;;;;;;;;14.80;70.30;;;;;;10171298;28;95936;-65
2023/01/04 10:54:59;;;;;;;;;;;14.80;70.50;;;;;;10172812;28;93857;-65
2023/01/04 11:00:04;;;;;;;;;;;14.80;70.80;;;;;;10171943;28;94718;-65
2023/01/04 11:05:27;;;;;;;;;;;14.80;70.90;;;;;;10171994;28;93924;-64
2023/01/04 11:10:49;;;;;;;;;;;14.70;70.90;;;;;;10172258;28;93355;-65
2023/01/04 11:15:51;;;;;;;;;;;14.80;71.00;;;;;;10171319;28;93893;-64
2023/01/04 11:20:53;;;;;;;;;;;14.70;71.00;;;;;;10171726;28;93469;-64
2023/01/04 11:25:56;;;;;;;;;;;14.70;71.00;;;;;;10172204;28;93578;-65
2023/01/04 11:31:07;;;;;;;;;;;14.70;71.10;;;;;;10171394;28;93899;-65
2023/01/04 11:36:08;;;;;;;;;;;14.70;71.20;;;;;;10170628;28;93482;-63
2023/01/04 11:41:19;;;;;;;;;;;14.70;71.20;;;;;;10168976;28;96757;-65
2023/01/04 11:46:23;;;;;;;;;;;14.70;71.20;;;;;;10171126;28;94059;-65
2023/01/04 11:51:27;;;;;;;;;;;14.70;71.20;;;;;;10171456;28;94211;-64
2023/01/04 11:56:39;;;;;;;;;;;14.70;71.20;;;;;;10170893;28;93516;-65
2023/01/04 12:01:43;;;;;;;;;;;14.70;71.40;;;;;;10171120;28;93620;-63
2023/01/04 12:06:49;;;;;;;;;;;14.70;71.30;;;;;;10169304;28;93383;-64
2023/01/04 12:11:52;;;;;;;;;;;14.70;71.40;;;;;;10170223;28;94248;-64
2023/01/04 12:16:58;;;;;;;;;;;14.70;71.40;;;;;;10170377;28;93061;-64
2023/01/04 12:22:01;;;;;;;;;;;14.70;71.40;;;;;;10170046;28;93548;-64
2023/01/04 12:27:03;;;;;;;;;;;14.70;71.40;;;;;;10170245;28;94510;-64
2023/01/04 12:32:10;;;;;;;;;;;14.70;71.50;;;;;;10167242;28;96159;-64
2023/01/04 12:37:32;;;;;;;;;;;14.70;71.50;;;;;;10168983;28;93743;-64
2023/01/04 12:42:34;;;;;;;;;;;14.70;71.60;;;;;;10164999;28;94111;-64
2023/01/04 12:52:59;;;;;;;;;;;14.70;71.70;;;;;;10167711;28;93477;-63
2023/01/04 12:58:27;;;;;;;;;;;14.70;71.60;;;;;;10168951;28;93533;-63
2023/01/04 13:03:53;;;;;;;;;;;14.70;71.60;;;;;;10167316;28;95646;-63
2023/01/04 13:09:01;;;;;;;;;;;14.70;71.70;;;;;;10169773;28;92252;-64
2023/01/04 13:14:13;;;;;;;;;;;14.70;71.80;;;;;;10168074;28;94429;-63
2023/01/04 13:19:22;;;;;;;;;;;14.70;71.70;;;;;;10167015;28;94513;-63
2023/01/04 13:24:26;;;;;;;;;;;14.70;71.90;;;;;;10179487;28;96871;-63
2023/01/04 13:29:29;;;;;;;;;;;14.70;71.80;;;;;;10167621;28;93846;-64
2023/01/04 13:34:50;;;;;;;;;;;14.70;71.70;;;;;;10168529;28;93902;-64
2023/01/04 13:39:59;;;;;;;;;;;14.70;71.70;;;;;;10183683;28;93611;-64
2023/01/04 13:45:07;;;;;;;;;;;14.60;71.70;;;;;;10168210;28;93884;-63
2023/01/04 13:50:32;;;;;;;;;;;14.70;71.80;;;;;;10167179;28;94575;-63
2023/01/04 13:55:37;;;;;;;;;;;14.70;71.80;;;;;;10167748;28;94321;-64
2023/01/04 14:00:47;;;;;;;;;;;14.60;71.80;;;;;;10167531;28;94017;-64
2023/01/04 14:05:50;;;;;;;;;;;14.60;71.70;;;;;;10166051;28;94407;-63
2023/01/04 14:10:52;;;;;;;;;;;14.60;71.70;;;;;;10182173;28;93583;-64
2023/01/04 14:16:02;;;;;;;;;;;14.60;71.80;;;;;;10163637;28;96881;-63
2023/01/04 14:21:12;;;;;;;;;;;14.70;71.90;;;;;;10166763;28;93621;-64
2023/01/04 14:26:42;;;;;;;;;;;14.60;71.90;;;;;;10166193;28;93539;-64
2023/01/04 14:31:44;;;;;;;;;;;14.60;71.90;;;;;;10164967;28;93485;-64
2023/01/04 14:36:46;;;;;;;;;;;14.70;71.90;;;;;;10166247;28;94144;-64
2023/01/04 14:41:47;;;;;;;;;;;14.60;71.90;;;;;;10165241;28;92511;-64
2023/01/04 14:46:53;;;;;;;;;;;14.60;71.90;;;;;;10165557;28;94453;-64
2023/01/04 14:51:56;;;;;;;;;;;14.60;72.00;;;;;;10166638;28;93563;-64
2023/01/04 14:56:58;;;;;;;;;;;14.60;71.90;;;;;;10165081;28;94610;-64
2023/01/04 15:02:00;;;;;;;;;;;14.60;71.90;;;;;;10164425;28;93540;-64
2023/01/04 15:07:02;;;;;;;;;;;14.60;72.00;;;;;;10160158;28;95883;-64
2023/01/04 15:12:03;;;;;;;;;;;14.60;71.90;;;;;;10166195;28;93714;-64
2023/01/04 15:17:05;;;;;;;;;;;14.70;72.00;;;;;;10172013;28;93467;-64
2023/01/04 15:22:07;;;;;;;;;;;14.60;71.90;;;;;;10171112;28;93947;-64
2023/01/04 15:27:09;;;;;;;;;;;14.60;71.90;;;;;;10172197;28;94631;-64
2023/01/04 15:32:11;;;;;;;;;;;14.60;71.90;;;;;;10172460;28;93666;-64
2023/01/04 15:37:16;;;;;;;;;;;14.60;71.90;;;;;;10170878;28;94169;-63
2023/01/04 15:47:44;;;;;;;;;;;14.60;72.90;;;;;;10171685;28;94516;-65
2023/01/04 15:52:46;;;;;;;;;;;14.60;71.90;;;;;;10171564;28;93554;-64
2023/01/04 15:57:48;;;;;;;;;;;14.60;71.90;;;;;;10168501;28;95889;-64
2023/01/04 16:02:50;;;;;;;;;;;14.60;72.00;;;;;;10170362;28;93461;-64
2023/01/04 16:07:52;;;;;;;;;;;14.60;72.00;;;;;;10184982;28;94501;-63
2023/01/04 16:12:54;;;;;;;;;;;14.60;72.00;;;;;;10170784;28;93561;-65
2023/01/04 16:17:57;;;;;;;;;;;14.60;71.90;;;;;;10169276;28;93577;-64
2023/01/04 16:22:59;;;;;;;;;;;14.70;71.80;;;;;;10168807;28;93691;-64
2023/01/04 16:28:01;;;;;;;;;;;14.70;71.70;;;;;;10169350;28;94739;-64
2023/01/04 16:33:03;;;;;;;;;;;14.70;71.70;;;;;;10184227;28;94080;-64
2023/01/04 16:38:04;;;;;;;;;;;14.70;71.60;;;;;;10169677;28;94523;-64
2023/01/04 16:43:06;;;;;;;;;;;14.80;71.60;;;;;;10167391;28;93710;-64
2023/01/04 16:48:08;;;;;;;;;;;14.70;71.50;;;;;;10166081;28;96844;-64
2023/01/04 16:53:18;;;;;;;;;;;14.70;71.60;;;;;;10168727;28;93536;-63
2023/01/04 16:58:20;;;;;;;;;;;14.70;71.50;;;;;;10169160;28;94477;-63
2023/01/04 17:03:22;;;;;;;;;;;14.70;71.60;;;;;;10167982;28;93624;-64
2023/01/04 17:08:25;;;;;;;;;;;14.80;71.70;;;;;;10167655;28;94436;-64
2023/01/04 17:13:27;;;;;;;;;;;14.70;71.70;;;;;;10168013;28;93554;-63
2023/01/04 17:18:29;;;;;;;;;;;14.70;71.70;;;;;;10167677;28;93534;-64
2023/01/04 17:23:33;;;;;;;;;;;14.70;71.80;;;;;;10183497;28;92882;-63
2023/01/04 17:28:35;;;;;;;;;;;14.70;71.90;;;;;;10167436;28;93512;-64
2023/01/04 17:33:37;;;;;;;;;;;14.70;71.80;;;;;;10182540;28;93558;-63
2023/01/04 17:38:39;;;;;;;;;;;14.70;72.00;;;;;;10164510;28;95934;-64
2023/01/04 17:43:42;;;;;;;;;;;14.70;72.00;;;;;;10167046;28;93844;-63
2023/01/04 17:48:44;;;;;;;;;;;14.70;71.90;;;;;;10167585;28;93540;-63
2023/01/04 17:53:46;;;;;;;;;;;14.70;71.90;;;;;;10182829;28;93266;-64
2023/01/04 17:58:48;;;;;;;;;;;14.70;71.90;;;;;;10167174;28;93439;-64
2023/01/04 18:03:51;;;;;;;;;;;14.60;71.80;;;;;;10166817;28;93881;-63
2023/01/04 18:08:53;;;;;;;;;;;14.60;71.70;;;;;;10166944;28;94597;-64
2023/01/04 18:13:55;;;;;;;;;;;14.70;71.80;;;;;;10167124;28;92916;-64
2023/01/04 18:18:58;;;;;;;;;;;14.60;71.70;;;;;;10181243;28;93579;-64
2023/01/04 18:24:00;;;;;;;;;;;14.60;71.60;;;;;;10166579;28;93991;-64
2023/01/04 18:29:22;;;;;;;;;;;14.60;71.50;;;;;;10164427;28;98331;-65
2023/01/04 18:34:25;;;;;;;;;;;14.60;71.50;;;;;;10166998;28;94399;-64
2023/01/04 18:39:27;;;;;;;;;;;14.60;71.50;;;;;;10166851;28;93901;-64
2023/01/04 18:44:29;;;;;;;;;;;14.60;71.50;;;;;;10165739;28;93521;-64
2023/01/04 18:49:35;;;;;;;;;;;14.60;71.50;;;;;;10169617;28;92545;-64
2023/01/04 18:54:37;;;;;;;;;;;14.60;71.50;;;;;;10173166;28;94299;-64
2023/01/04 18:59:39;;;;;;;;;;;14.60;71.60;;;;;;10173206;28;94526;-64
2023/01/04 19:04:41;;;;;;;;;;;14.60;71.50;;;;;;10173151;28;92931;-64
2023/01/04 19:09:43;;;;;;;;;;;14.60;71.50;;;;;;10173466;28;94540;-64
2023/01/04 19:14:45;;;;;;;;;;;14.60;71.50;;;;;;10172649;28;94960;-65
2023/01/04 19:19:48;;;;;;;;;;;14.60;71.50;;;;;;10170085;28;95914;-64
2023/01/04 19:24:50;;;;;;;;;;;14.60;71.60;;;;;;10171811;28;94283;-64
2023/01/04 19:29:52;;;;;;;;;;;14.60;71.70;;;;;;10170635;28;94811;-64
2023/01/04 19:34:54;;;;;;;;;;;14.60;71.70;;;;;;10186240;28;93594;-64
2023/01/04 19:39:56;;;;;;;;;;;14.60;71.70;;;;;;10186096;28;93993;-65
2023/01/04 19:44:57;;;;;;;;;;;14.60;71.70;;;;;;10185255;28;93485;-64
2023/01/04 19:50:00;;;;;;;;;;;14.60;71.70;;;;;;10171465;28;92863;-65
2023/01/04 19:55:02;;;;;;;;;;;14.60;71.80;;;;;;10171677;28;93900;-64
2023/01/04 20:00:05;;;;;;;;;;;14.60;71.80;;;;;;10172045;28;93699;-65
2023/01/04 20:05:06;;;;;;;;;;;14.60;71.80;;;;;;10170923;28;94461;-64
2023/01/04 20:10:09;;;;;;;;;;;14.60;71.80;;;;;;10168378;28;95853;-65
2023/01/04 20:15:15;;;;;;;;;;;14.60;71.70;;;;;;10172516;28;92581;-64
2023/01/04 20:20:18;;;;;;;;;;;14.60;71.70;;;;;;10169553;28;93524;-64
2023/01/04 20:25:19;;;;;;;;;;;14.60;71.70;;;;;;10169778;28;93914;-64
2023/01/04 20:30:21;;;;;;;;;;;14.60;71.80;;;;;;10170225;28;93517;-64
2023/01/04 20:35:23;;;;;;;;;;;14.60;71.70;;;;;;10169900;28;94475;-64
2023/01/04 20:40:25;;;;;;;;;;;14.60;71.70;;;;;;10170051;28;94574;-64
2023/01/04 20:45:27;;;;;;;;;;;14.50;71.70;;;;;;10171187;28;92807;-64
2023/01/04 20:50:30;;;;;;;;;;;14.60;71.70;;;;;;10169301;28;94933;-64
2023/01/04 20:55:38;;;;;;;;;;;14.60;71.70;;;;;;10169456;28;93312;-64
2023/01/04 21:00:40;;;;;;;;;;;14.60;71.60;;;;;;10166554;28;95938;-64
2023/01/04 21:05:43;;;;;;;;;;;14.50;71.60;;;;;;10168323;28;94861;-64
2023/01/04 21:10:45;;;;;;;;;;;14.60;71.70;;;;;;10168425;28;94584;-64
2023/01/04 21:15:47;;;;;;;;;;;14.60;71.60;;;;;;10167300;28;93585;-65
2023/01/04 21:20:49;;;;;;;;;;;14.60;71.60;;;;;;10168042;28;93615;-64
2023/01/04 21:25:51;;;;;;;;;;;14.60;71.60;;;;;;10183171;28;93685;-65
2023/01/04 21:30:53;;;;;;;;;;;14.60;71.60;;;;;;10167884;28;94659;-64
2023/01/04 21:35:55;;;;;;;;;;;14.50;71.60;;;;;;10169442;28;93709;-64
2023/01/04 21:40:56;;;;;;;;;;;14.60;71.60;;;;;;10167879;28;93556;-64
2023/01/04 21:46:03;;;;;;;;;;;14.50;71.60;;;;;;10168473;28;92819;-64
2023/01/04 21:51:05;;;;;;;;;;;14.60;71.50;;;;;;10166027;28;96054;-64
2023/01/04 21:56:08;;;;;;;;;;;14.60;71.50;;;;;;10167495;28;93403;-64
2023/01/04 22:01:14;;;;;;;;;;;14.60;71.50;;;;;;10167268;28;93140;-64
2023/01/04 22:06:16;;;;;;;;;;;14.50;71.40;;;;;;10181573;28;93921;-64
2023/01/04 22:11:18;;;;;;;;;;;14.60;71.40;;;;;;10167407;28;93581;-64
2023/01/04 22:16:20;;;;;;;;;;;14.50;71.40;;;;;;10167126;28;94448;-65
2023/01/04 22:21:22;;;;;;;;;;;14.60;71.40;;;;;;10182754;28;94737;-65
2023/01/04 22:26:24;;;;;;;;;;;14.50;71.40;;;;;;10174048;28;93832;-65
2023/01/04 22:31:26;;;;;;;;;;;14.50;72.40;;;;;;10174489;28;93314;-64
2023/01/04 22:36:28;;;;;;;;;;;14.50;71.30;;;;;;10187529;28;93416;-64
2023/01/04 22:41:29;;;;;;;;;;;14.60;71.50;;;;;;10171074;28;96880;-64
2023/01/04 22:46:32;;;;;;;;;;;14.50;71.40;;;;;;10187850;28;93593;-64
2023/01/04 22:51:34;;;;;;;;;;;14.50;71.40;;;;;;10173276;28;93631;-64
2023/01/04 22:56:36;;;;;;;;;;;14.60;71.40;;;;;;10172434;28;94790;-64
2023/01/04 23:01:38;;;;;;;;;;;14.60;71.40;;;;;;10172207;28;93594;-64
2023/01/04 23:06:39;;;;;;;;;;;14.50;71.30;;;;;;10170249;28;93536;-64
2023/01/04 23:11:41;;;;;;;;;;;14.50;71.30;;;;;;10172798;28;93414;-64
2023/01/04 23:16:43;;;;;;;;;;;14.50;71.30;;;;;;10173172;28;92242;-64
2023/01/04 23:21:45;;;;;;;;;;;14.50;71.40;;;;;;10187422;28;93465;-63
2023/01/04 23:26:47;;;;;;;;;;;14.60;71.30;;;;;;10172682;28;93325;-65
2023/01/04 23:31:49;;;;;;;;;;;14.70;71.20;;;;;;10169116;28;95792;-64
2023/01/04 23:36:51;;;;;;;;;;;14.70;71.20;;;;;;10171639;28;94533;-64
2023/01/04 23:41:53;;;;;;;;;;;14.70;71.00;;;;;;10171436;28;93122;-64
2023/01/04 23:46:56;;;;;;;;;;;14.70;71.00;;;;;;10169638;28;93453;-64
2023/01/04 23:51:58;;;;;;;;;;;14.70;71.00;;;;;;10171020;28;93466;-64
2023/01/04 23:57:00;;;;;;;;;;;14.70;72.00;;;;;;10171279;28;93535;-64
